createdAt,value
2023-03-22T00:00:17.688Z,100243.44
2023-03-22T00:02:48.158Z,100242.66
2023-03-22T00:05:17.266Z,100237.72
2023-03-22T00:07:45.772Z,100231.94
2023-03-22T00:10:14.681Z,100229.56
2023-03-22T00:12:43.604Z,100229.47
2023-03-22T00:15:13.027Z,100229.38
2023-03-22T00:17:42.175Z,100222.91
2023-03-22T00:20:13.183Z,100213.25
2023-03-22T00:22:41.702Z,100212.22
2023-03-22T00:25:11.164Z,100215.19
2023-03-22T00:27:40.147Z,100214.66
2023-03-22T00:30:10.423Z,100213.56
2023-03-22T00:32:40.126Z,100208.44
2023-03-22T00:35:09.758Z,100207.66
2023-03-22T00:37:40.287Z,100208.06
2023-03-22T00:40:13.668Z,100221.88
2023-03-22T00:42:43.226Z,100227.22
2023-03-22T00:45:14.122Z,100220.88
2023-03-22T00:47:43.362Z,100212.97
2023-03-22T00:50:12.478Z,100206.03
2023-03-22T00:52:42.500Z,100204.25
2023-03-22T00:55:11.827Z,100204.25
2023-03-22T00:57:40.889Z,100202.06
2023-03-22T01:00:13.804Z,100202.16
2023-03-22T01:02:43.250Z,100192.25
2023-03-22T01:05:17.923Z,100191.66
2023-03-22T01:07:50.699Z,100197.63
2023-03-22T01:10:20.172Z,100195.00
2023-03-22T01:12:49.579Z,100199.72
2023-03-22T01:15:18.806Z,100194.06
2023-03-22T01:17:47.788Z,100189.72
2023-03-22T01:20:16.724Z,100192.59
2023-03-22T01:22:45.358Z,100189.72
2023-03-22T01:25:15.829Z,100192.59
2023-03-22T01:27:44.852Z,100183.16
2023-03-22T01:30:14.728Z,100188.91
2023-03-22T01:32:43.674Z,100182.22
2023-03-22T01:35:13.254Z,100186.75
2023-03-22T01:37:43.869Z,100185.53
2023-03-22T01:40:15.952Z,100175.97
2023-03-22T01:42:46.023Z,100167.88
2023-03-22T01:45:42.581Z,100177.78
2023-03-22T01:48:26.915Z,100172.75
2023-03-22T01:51:05.205Z,100164.28
2023-03-22T01:53:43.067Z,100166.22
2023-03-22T01:56:13.849Z,100159.78
2023-03-22T01:58:42.994Z,100161.19
2023-03-22T02:01:13.487Z,100158.81
2023-03-22T02:03:57.066Z,100163.44
2023-03-22T02:06:30.027Z,100159.28
2023-03-22T02:09:12.519Z,100150.31
2023-03-22T02:11:45.902Z,100151.75
2023-03-22T02:14:44.856Z,100153.41
2023-03-22T02:17:43.455Z,100155.91
2023-03-22T02:20:53.155Z,100145.03
2023-03-22T02:23:44.863Z,100149.22
2023-03-22T02:26:51.860Z,100144.31
2023-03-22T02:29:30.204Z,100150.56
2023-03-22T02:32:27.740Z,100147.19
2023-03-22T02:35:25.759Z,100142.06
2023-03-22T02:38:45.865Z,100147.59
2023-03-22T02:41:19.930Z,100141.25
2023-03-22T02:43:59.244Z,100136.34
2023-03-22T02:46:32.206Z,100139.44
2023-03-22T02:49:06.757Z,100137.88
2023-03-22T02:51:39.996Z,100130.25
2023-03-22T02:54:12.356Z,100130.00
2023-03-22T02:56:47.564Z,100134.03
2023-03-22T02:59:19.118Z,100120.03
2023-03-22T03:01:50.108Z,100115.28
2023-03-22T03:04:21.461Z,100115.63
2023-03-22T03:06:52.893Z,100112.63
2023-03-22T03:09:22.532Z,100109.81
2023-03-22T03:11:54.778Z,100110.63
2023-03-22T03:14:26.085Z,100106.28
2023-03-22T03:17:08.219Z,100113.16
2023-03-22T03:19:40.902Z,100123.28
2023-03-22T03:22:24.174Z,100117.22
2023-03-22T03:24:59.780Z,100122.94
2023-03-22T03:27:33.998Z,100112.81
2023-03-22T03:30:06.834Z,100107.56
2023-03-22T03:32:42.166Z,100109.22
2023-03-22T03:35:22.456Z,100109.94
2023-03-22T03:37:53.186Z,100110.56
2023-03-22T03:40:24.464Z,100107.09
2023-03-22T03:42:56.124Z,100105.28
2023-03-22T03:45:26.668Z,100107.31
2023-03-22T03:47:59.713Z,100104.69
2023-03-22T03:50:29.175Z,100097.66
2023-03-22T03:52:58.736Z,100101.22
2023-03-22T03:55:28.616Z,100101.94
2023-03-22T03:57:58.935Z,100101.59
2023-03-22T04:00:27.947Z,100108.25
2023-03-22T04:03:32.600Z,100099.44
2023-03-22T04:06:13.776Z,100107.06
2023-03-22T04:08:53.639Z,100106.47
2023-03-22T04:11:26.674Z,100109.00
2023-03-22T04:14:01.538Z,100106.56
2023-03-22T04:16:30.559Z,100111.50
2023-03-22T04:18:59.443Z,100104.13
2023-03-22T04:21:28.453Z,100102.50
2023-03-22T04:24:03.020Z,100101.59
2023-03-22T04:26:37.311Z,100096.94
2023-03-22T04:29:24.602Z,100096.25
2023-03-22T04:32:00.892Z,100100.16
2023-03-22T04:34:43.117Z,100101.84
2023-03-22T04:37:14.668Z,100107.38
2023-03-22T04:39:54.578Z,100108.59
2023-03-22T04:42:57.563Z,100107.97
2023-03-22T04:45:50.854Z,100110.94
2023-03-22T04:48:28.172Z,100112.34
2023-03-22T04:51:04.240Z,100118.44
2023-03-22T04:53:40.001Z,100112.03
2023-03-22T04:56:12.833Z,100108.44
2023-03-22T04:58:44.276Z,100101.69
2023-03-22T05:01:17.409Z,100114.66
2023-03-22T05:03:48.922Z,100108.44
2023-03-22T05:06:22.985Z,100113.63
2023-03-22T05:08:59.566Z,100107.00
2023-03-22T05:11:28.899Z,100114.94
2023-03-22T05:14:20.403Z,100109.56
2023-03-22T05:16:50.809Z,100114.75
2023-03-22T05:19:22.369Z,100113.91
2023-03-22T05:21:58.418Z,100108.88
2023-03-22T05:24:40.864Z,100113.56
2023-03-22T05:27:15.093Z,100115.81
2023-03-22T05:29:45.259Z,100115.50
2023-03-22T05:32:25.905Z,100115.88
2023-03-22T05:34:57.172Z,100111.94
2023-03-22T05:37:37.018Z,100110.41
2023-03-22T05:40:10.016Z,100112.50
2023-03-22T05:42:43.537Z,100108.66
2023-03-22T05:45:19.000Z,100116.03
2023-03-22T05:47:53.824Z,100119.50
2023-03-22T05:50:24.718Z,100119.88
2023-03-22T05:52:53.469Z,100120.06
2023-03-22T05:56:01.012Z,100123.06
2023-03-22T05:58:33.963Z,100120.56
2023-03-22T06:01:06.153Z,100123.69
2023-03-22T06:03:51.294Z,100126.66
2023-03-22T06:06:32.436Z,100117.59
2023-03-22T06:09:17.530Z,100124.34
2023-03-22T06:11:51.351Z,100127.56
2023-03-22T06:14:20.420Z,100122.94
2023-03-22T06:17:14.456Z,100118.88
2023-03-22T06:19:45.195Z,100114.91
2023-03-22T06:22:16.123Z,100115.06
2023-03-22T06:24:46.112Z,100123.41
2023-03-22T06:27:21.948Z,100121.06
2023-03-22T06:29:51.168Z,100121.97
2023-03-22T06:32:26.785Z,100123.59
2023-03-22T06:34:58.291Z,100113.34
2023-03-22T06:37:27.571Z,100112.41
2023-03-22T06:39:57.715Z,100113.41
2023-03-22T06:42:28.578Z,100115.97
2023-03-22T06:45:08.103Z,100103.72
2023-03-22T06:47:40.049Z,100100.50
2023-03-22T06:50:17.681Z,100094.44
2023-03-22T06:53:06.230Z,100099.31
2023-03-22T06:55:37.307Z,100101.31
2023-03-22T06:58:25.077Z,100098.50
2023-03-22T07:00:54.192Z,100097.03
2023-03-22T07:03:25.233Z,100107.13
2023-03-22T07:06:05.678Z,100093.78
2023-03-22T07:08:37.281Z,100089.56
2023-03-22T07:11:08.453Z,100093.47
2023-03-22T07:13:37.707Z,100087.00
2023-03-22T07:16:12.520Z,100083.69
2023-03-22T07:18:45.727Z,100089.47
2023-03-22T07:21:16.876Z,100087.44
2023-03-22T07:23:50.679Z,100073.19
2023-03-22T07:26:21.902Z,100071.94
2023-03-22T07:28:51.850Z,100070.72
2023-03-22T07:31:23.323Z,100060.44
2023-03-22T07:34:01.174Z,100069.50
2023-03-22T07:36:35.192Z,100068.25
2023-03-22T07:39:05.945Z,100068.25
2023-03-22T07:41:37.897Z,100069.28
2023-03-22T07:44:42.158Z,100080.81
2023-03-22T07:47:30.830Z,100063.44
2023-03-22T07:50:32.943Z,100067.97
2023-03-22T07:53:06.230Z,100063.56
2023-03-22T07:55:34.785Z,100064.09
2023-03-22T07:58:03.939Z,100055.84
2023-03-22T08:00:33.153Z,100067.41
2023-03-22T08:03:23.375Z,100050.28
2023-03-22T08:06:07.218Z,100050.19
2023-03-22T08:08:38.964Z,100047.09
2023-03-22T08:11:08.922Z,100051.66
2023-03-22T08:13:38.128Z,100057.00
2023-03-22T08:16:10.180Z,100055.00
2023-03-22T08:18:39.402Z,100046.81
2023-03-22T08:21:09.330Z,100040.69
2023-03-22T08:23:42.078Z,100036.69
2023-03-22T08:26:42.739Z,100033.88
2023-03-22T08:29:18.826Z,100037.88
2023-03-22T08:31:49.575Z,100036.06
2023-03-22T08:34:18.521Z,100037.00
2023-03-22T08:36:47.841Z,100030.00
2023-03-22T08:39:18.144Z,100024.88
2023-03-22T08:41:57.528Z,100026.78
2023-03-22T08:44:28.697Z,100033.47
2023-03-22T08:46:57.488Z,100045.69
2023-03-22T08:49:27.284Z,100034.78
2023-03-22T08:52:07.517Z,100036.75
2023-03-22T08:54:58.055Z,100030.72
2023-03-22T08:57:59.954Z,100037.56
2023-03-22T09:00:52.388Z,100042.34
2023-03-22T09:03:26.658Z,100047.00
2023-03-22T09:05:56.489Z,100033.56
2023-03-22T09:08:26.201Z,100044.03
2023-03-22T09:11:04.242Z,100036.25
2023-03-22T09:13:34.944Z,100034.34
2023-03-22T09:16:06.625Z,100040.53
2023-03-22T09:18:35.420Z,100034.06
2023-03-22T09:21:12.226Z,100035.22
2023-03-22T09:23:48.793Z,100023.91
2023-03-22T09:26:22.978Z,100020.78
2023-03-22T09:28:53.863Z,100013.91
2023-03-22T09:31:23.034Z,100008.44
2023-03-22T09:34:04.212Z,100010.28
2023-03-22T09:36:34.399Z,100004.41
2023-03-22T09:39:07.035Z,100004.13
2023-03-22T09:41:42.424Z,100002.94
2023-03-22T09:44:15.805Z,99996.19
2023-03-22T09:46:47.972Z,99998.91
2023-03-22T09:49:21.216Z,99994.72
2023-03-22T09:51:51.898Z,99994.06
2023-03-22T09:54:21.793Z,99981.88
2023-03-22T09:56:55.927Z,99982.34
2023-03-22T09:59:32.748Z,99990.75
2023-03-22T10:02:04.829Z,99987.72
2023-03-22T10:04:46.378Z,99998.63
2023-03-22T10:07:23.032Z,99994.66
2023-03-22T10:10:00.810Z,99996.88
2023-03-22T10:12:33.044Z,99995.25
2023-03-22T10:15:06.236Z,100000.94
2023-03-22T10:17:38.138Z,99997.75
2023-03-22T10:20:09.858Z,99982.34
2023-03-22T10:22:41.932Z,99995.13
2023-03-22T10:25:11.308Z,99990.50
2023-03-22T10:27:41.678Z,99981.03
2023-03-22T10:30:11.418Z,99985.25
2023-03-22T10:32:56.668Z,99983.31
2023-03-22T10:35:27.051Z,99989.72
2023-03-22T10:37:57.289Z,99983.59
2023-03-22T10:40:28.748Z,99976.91
2023-03-22T10:43:03.577Z,99974.03
2023-03-22T10:45:35.555Z,99989.78
2023-03-22T10:48:07.341Z,99987.16
2023-03-22T10:50:38.258Z,99967.84
2023-03-22T10:53:08.474Z,99973.69
2023-03-22T10:55:41.373Z,99975.19
2023-03-22T10:58:17.197Z,99964.44
2023-03-22T11:00:49.398Z,99959.84
2023-03-22T11:03:29.780Z,99964.91
2023-03-22T11:06:03.519Z,99968.50
2023-03-22T11:08:40.635Z,99960.25
2023-03-22T11:11:16.342Z,99958.09
2023-03-22T11:13:52.228Z,99947.63
2023-03-22T11:16:21.586Z,99957.19
2023-03-22T11:18:50.778Z,99958.50
2023-03-22T11:21:21.320Z,99953.16
2023-03-22T11:23:56.493Z,99948.56
2023-03-22T11:26:35.901Z,99957.41
2023-03-22T11:29:13.994Z,99957.13
2023-03-22T11:31:58.906Z,99953.94
2023-03-22T11:34:30.876Z,99950.81
2023-03-22T11:37:01.657Z,99940.47
2023-03-22T11:39:31.143Z,99959.47
2023-03-22T11:42:01.688Z,99949.47
2023-03-22T11:44:34.695Z,99941.53
2023-03-22T11:47:04.625Z,99950.31
2023-03-22T11:49:40.517Z,99932.50
2023-03-22T11:52:11.542Z,99927.44
2023-03-22T11:54:42.425Z,99930.41
2023-03-22T11:57:17.181Z,99923.31
2023-03-22T11:59:54.858Z,99922.34
2023-03-22T12:02:25.483Z,99918.50
2023-03-22T12:04:57.367Z,99920.19
2023-03-22T12:07:26.986Z,99908.84
2023-03-22T12:10:00.520Z,99910.44
2023-03-22T12:12:32.737Z,99902.59
2023-03-22T12:15:06.857Z,99903.31
2023-03-22T12:17:38.992Z,99903.44
2023-03-22T12:20:19.398Z,99891.34
2023-03-22T12:22:52.844Z,99892.19
2023-03-22T12:25:23.769Z,99892.59
2023-03-22T12:27:55.766Z,99887.91
2023-03-22T12:30:28.611Z,99878.72
2023-03-22T12:33:01.739Z,99882.94
2023-03-22T12:35:33.197Z,99872.00
2023-03-22T12:38:09.051Z,99875.56
2023-03-22T12:40:40.255Z,99877.84
2023-03-22T12:43:14.871Z,99887.00
2023-03-22T12:45:49.172Z,99880.00
2023-03-22T12:48:20.919Z,99865.94
2023-03-22T12:50:52.596Z,99862.63
2023-03-22T12:53:21.921Z,99863.94
2023-03-22T12:55:51.310Z,99866.38
2023-03-22T12:58:22.264Z,99865.56
2023-03-22T13:00:55.174Z,99862.75
2023-03-22T13:03:29.519Z,99868.16
2023-03-22T13:06:03.784Z,99853.88
2023-03-22T13:09:18.096Z,99855.47
2023-03-22T13:11:48.827Z,99849.09
2023-03-22T13:14:56.187Z,99849.16
2023-03-22T13:17:45.424Z,99836.88
2023-03-22T13:20:41.366Z,99839.75
2023-03-22T13:23:27.622Z,99829.09
2023-03-22T13:26:05.190Z,99834.34
2023-03-22T13:28:38.344Z,99832.34
2023-03-22T13:31:08.115Z,99836.97
2023-03-22T13:33:38.972Z,99842.88
2023-03-22T13:36:09.938Z,99833.34
2023-03-22T13:38:42.995Z,99827.38
2023-03-22T13:41:22.699Z,99833.84
2023-03-22T13:43:52.652Z,99837.16
2023-03-22T13:46:45.255Z,99831.34
2023-03-22T13:49:34.322Z,99823.94
2023-03-22T13:52:03.741Z,99822.28
2023-03-22T13:54:38.843Z,99830.59
2023-03-22T13:57:17.671Z,99822.84
2023-03-22T14:00:11.251Z,99816.09
2023-03-22T14:02:43.257Z,99819.63
2023-03-22T14:05:18.066Z,99806.22
2023-03-22T14:07:49.484Z,99814.94
2023-03-22T14:10:21.649Z,99810.75
2023-03-22T14:12:53.607Z,99810.53
2023-03-22T14:15:25.078Z,99816.94
2023-03-22T14:17:57.672Z,99818.88
2023-03-22T14:20:32.373Z,99819.78
